Portada
METAR-TAF:

METAR-TAF

Aeropuertos :

Harlan Municipal Airport

Harlan, Iowa, Estados Unidos

latitud: 41-35-04N, longitud: 095-20-23W, altitud: 375 m

Observación

El informe se hizo hace 25 minutos, a las 05:55 UTC
Viento calma
Temperatura 14°C
Humedad 100%
Presión 1024 hPa
Visibilidad: 16.1 km
Cielo nuboso a una altura de 6500 ft
Cielo cubierto a una altura de 8000 ft

METAR: KHNR 310555Z AUTO 00000KT 10SM BKN065 OVC080 14/14 A3025 RMK AO2

Hora: 01:20 (06:20 UTC)


TAF: falta

Observaciones y pronósticos meteorológicos de más de 4000 aeropuertos (mensajes METAR y TAF).

Los puntos amarillos y rojos representan las estaciones disponibles.

Ponga el ratón en el punto deseado para ver el nombre de la estación.

Haga clic para ver las observaciones y los pronósticos meteorológicos.

Para cambiar el mapa : haga clic en los botones verdes con una cruz de color negro para hacer un zoom, en el botón verde con un guión para alejar o en las flechas verdes para mapas adyacentes.


METAR-TAF: